Item Display Status Humidity-temperature Sensor

Elevation Above Sea Level: 3 m

 

Deployed Sensor

  • Serial Number: 20351209
  • NDBC Property Number: 43275
  • Start Date: 4/17/2020 (11:11:26 Z)
  • End Date: Currently Active
Relative Humidity [%]     6 entries per hour
Showing data from 2/5/2021 (12:40:00 Z) to 2/4/2021 (00:00:01 Z)
Previous Next [ Day | 3-Days | 7-Days ]
First Last
Prev [ Day | 3-Days | 7-Days ] Next
First Last

Start Time:     :
End Time:     :     
Time (in GMT) :00 :50 :40 :30 :20 :10
Previous Next [ Day | 3-Days | 7-Days ]
First Last
Prev [ Day | 3-Days | 7-Days ] Next
First Last


123 => good data
MM => data is determined as missing
-- => data not received/configured
Back to Top Back to Top
2/5/2021 13:00 to 12:10 -- -- 100.90 98.42 97.08 97.51
2/5/2021 12:00 to 11:10 97.18 96.94 98.83 96.85 96.11 96.27
2/5/2021 11:00 to 10:10 96.13 96.23 96.63 97.00 96.01 95.43
2/5/2021 10:00 to 9:10 95.26 95.28 95.18 95.66 96.42 96.03
2/5/2021 09:00 to 8:10 95.99 96.05 96.52 96.85 96.94 97.00
2/5/2021 08:00 to 7:10 97.02 96.63 96.48 96.69 96.94 97.14
2/5/2021 07:00 to 6:10 97.14 96.65 96.54 96.56 96.73 96.83
2/5/2021 06:00 to 5:10 96.79 96.91 96.96 97.04 96.96 96.54
2/5/2021 05:00 to 4:10 96.46 96.27 95.74 95.66 95.47 95.84
2/5/2021 04:00 to 3:10 95.78 95.97 96.05 95.72 95.47 95.35
2/5/2021 03:00 to 2:10 95.20 95.37 95.64 95.53 94.89 94.77
2/5/2021 02:00 to 1:10 95.02 94.75 94.75 95.22 94.81 94.40
2/5/2021 01:00 to 0:10 94.85 95.35 95.78 95.88 96.23 96.07
2/5/2021 00:00 to 23:10 94.64 93.12 93.16 93.94 94.19 94.58
2/4/2021 23:00 to 22:10 94.91 94.71 95.08 94.64 93.98 94.07
2/4/2021 22:00 to 21:10 94.50 94.67 94.73 94.69 94.07 93.98
2/4/2021 21:00 to 20:10 92.91 93.39 94.00 94.17 94.85 94.93
2/4/2021 20:00 to 19:10 95.02 95.70 95.18 93.80 93.18 92.66
2/4/2021 19:00 to 18:10 92.66 92.83 93.01 92.66 92.95 92.91
2/4/2021 18:00 to 17:10 92.99 92.93 92.58 92.25 92.56 92.62
2/4/2021 17:00 to 16:10 92.31 92.11 91.88 91.69 91.45 92.15
2/4/2021 16:00 to 15:10 92.07 94.07 94.31 94.19 94.17 93.88
2/4/2021 15:00 to 14:10 93.88 93.34 93.34 94.89 96.13 96.63
2/4/2021 14:00 to 13:10 96.52 96.73 96.89 96.79 97.10 97.12
2/4/2021 13:00 to 12:10 97.29 97.06 96.87 96.09 95.84 95.35
2/4/2021 12:00 to 11:10 95.41 96.34 96.46 97.39 97.02 97.06
2/4/2021 11:00 to 10:10 97.18 96.96 97.12 96.83 96.77 96.73
2/4/2021 10:00 to 9:10 97.14 96.94 96.85 96.63 96.17 96.17
2/4/2021 09:00 to 8:10 96.56 96.81 97.06 97.33 97.29 97.20
2/4/2021 08:00 to 7:10 97.27 97.37 97.20 96.77 96.75 96.89
2/4/2021 07:00 to 6:10 96.75 96.83 96.67 96.77 96.77 96.83
2/4/2021 06:00 to 5:10 97.16 98.11 98.52 98.81 98.90 99.76
2/4/2021 05:00 to 4:10 100.63 100.84 98.09 95.14 94.62 94.60
2/4/2021 04:00 to 3:10 95.24 94.77 94.62 94.42 94.79 94.62
2/4/2021 03:00 to 2:10 94.40 94.38 94.21 94.15 94.25 94.27
2/4/2021 02:00 to 1:10 93.94 93.86 93.78 94.09 93.45 93.08
2/4/2021 01:00 to 0:10 93.06 93.67 93.57 94.19 94.27 93.92

 

 

 

Air Temperature [°C]     6 entries per hour
Showing data from 2/5/2021 (12:30:00 Z) to 2/4/2021 (00:00:01 Z)
Previous Next [ Day | 3-Days | 7-Days ]
First Last
Prev [ Day | 3-Days | 7-Days ] Next
First Last

Start Time:     :
End Time:     :     
Time (in GMT) :00 :50 :40 :30 :20 :10
Previous Next [ Day | 3-Days | 7-Days ]
First Last
Prev [ Day | 3-Days | 7-Days ] Next
First Last


123 => good data
MM => data is determined as missing
-- => data not received/configured
Back to Top Back to Top
2/5/2021 13:00 to 12:10 -- -- -- 27.21 26.36 26.03
2/5/2021 12:00 to 11:10 25.84 25.46 26.91 25.58 25.53 25.57
2/5/2021 11:00 to 10:10 25.57 25.50 25.62 25.90 25.67 25.73
2/5/2021 10:00 to 9:10 25.77 25.64 25.79 25.60 25.84 25.75
2/5/2021 09:00 to 8:10 25.74 25.89 25.73 25.72 25.80 25.78
2/5/2021 08:00 to 7:10 25.76 25.81 25.90 25.76 25.83 25.79
2/5/2021 07:00 to 6:10 25.96 26.03 25.95 25.95 25.99 25.99
2/5/2021 06:00 to 5:10 26.05 26.02 25.93 25.97 26.00 26.05
2/5/2021 05:00 to 4:10 26.05 26.12 26.05 26.06 26.03 26.14
2/5/2021 04:00 to 3:10 26.08 26.21 26.24 26.24 26.10 26.21
2/5/2021 03:00 to 2:10 26.15 26.00 26.08 25.94 25.79 26.05
2/5/2021 02:00 to 1:10 26.28 26.14 26.14 26.07 26.27 26.25
2/5/2021 01:00 to 0:10 26.14 26.02 26.01 25.86 25.77 25.96
2/5/2021 00:00 to 23:10 26.32 26.43 26.50 26.28 26.50 26.37
2/4/2021 23:00 to 22:10 26.49 26.41 26.52 26.59 26.60 26.31
2/4/2021 22:00 to 21:10 26.37 26.23 26.28 26.40 26.39 26.43
2/4/2021 21:00 to 20:10 26.49 26.47 26.55 26.47 26.34 26.29
2/4/2021 20:00 to 19:10 26.04 25.75 25.83 26.46 26.74 26.93
2/4/2021 19:00 to 18:10 26.63 26.76 26.77 26.75 26.72 26.71
2/4/2021 18:00 to 17:10 26.81 26.79 26.76 26.72 26.78 26.75
2/4/2021 17:00 to 16:10 27.01 26.94 26.96 27.01 26.89 26.88
2/4/2021 16:00 to 15:10 26.90 26.52 26.67 26.56 26.45 26.56
2/4/2021 15:00 to 14:10 26.58 26.65 26.57 26.30 26.34 26.36
2/4/2021 14:00 to 13:10 26.34 26.33 26.17 26.10 26.21 26.05
2/4/2021 13:00 to 12:10 26.14 26.07 26.15 26.15 26.19 26.20
2/4/2021 12:00 to 11:10 26.05 26.10 26.03 26.17 26.10 26.03
2/4/2021 11:00 to 10:10 26.19 26.12 26.23 26.30 26.20 26.25
2/4/2021 10:00 to 9:10 26.22 26.18 26.43 26.28 26.31 26.27
2/4/2021 09:00 to 8:10 26.32 26.29 26.31 26.32 26.17 26.30
2/4/2021 08:00 to 7:10 26.38 26.24 26.33 26.39 26.36 26.38
2/4/2021 07:00 to 6:10 26.40 26.43 26.41 26.39 26.34 26.35
2/4/2021 06:00 to 5:10 26.36 26.19 26.26 26.17 26.04 26.04
2/4/2021 05:00 to 4:10 25.79 25.52 25.49 26.54 26.65 26.47
2/4/2021 04:00 to 3:10 26.71 26.74 26.68 26.71 26.67 26.68
2/4/2021 03:00 to 2:10 26.64 26.64 26.67 26.61 26.69 26.60
2/4/2021 02:00 to 1:10 26.60 26.61 26.64 26.79 26.74 26.68
2/4/2021 01:00 to 0:10 26.56 26.65 26.58 26.59 26.63 26.67